sensor_id;sensor_type;location;lat;lon;timestamp;noise_LAeq;noise_LA_min;noise_LA_max;noise_LA01;noise_LA95
66274;Laerm;58450;52.150;4.466;2023-06-24T00:02:27;40.37;33.29;48.63;;
66274;Laerm;58450;52.150;4.466;2023-06-24T00:04:54;40.74;33.68;50.02;;
66274;Laerm;58450;52.150;4.466;2023-06-24T00:07:26;40.36;33.29;48.64;;
66274;Laerm;58450;52.150;4.466;2023-06-24T00:09:54;39.98;33.17;49.23;;
66274;Laerm;58450;52.150;4.466;2023-06-24T00:12:21;40.56;33.88;49.84;;
66274;Laerm;58450;52.150;4.466;2023-06-24T00:14:50;40.38;33.15;56.57;;
66274;Laerm;58450;52.150;4.466;2023-06-24T00:17:19;39.92;32.39;57.34;;
66274;Laerm;58450;52.150;4.466;2023-06-24T00:19:47;39.91;32.43;59.32;;
66274;Laerm;58450;52.150;4.466;2023-06-24T00:22:14;43.45;32.95;55.13;;
66274;Laerm;58450;52.150;4.466;2023-06-24T00:24:42;40.18;32.30;53.36;;
66274;Laerm;58450;52.150;4.466;2023-06-24T00:27:10;44.22;32.95;59.09;;
66274;Laerm;58450;52.150;4.466;2023-06-24T00:29:37;39.52;32.32;51.21;;
66274;Laerm;58450;52.150;4.466;2023-06-24T00:32:07;40.01;33.84;49.05;;
66274;Laerm;58450;52.150;4.466;2023-06-24T00:34:36;39.63;32.67;48.53;;
66274;Laerm;58450;52.150;4.466;2023-06-24T00:37:04;40.18;33.36;49.89;;
66274;Laerm;58450;52.150;4.466;2023-06-24T00:39:31;40.01;33.54;48.51;;
66274;Laerm;58450;52.150;4.466;2023-06-24T00:41:59;40.00;33.15;48.91;;
66274;Laerm;58450;52.150;4.466;2023-06-24T00:44:27;38.91;32.21;48.33;;
66274;Laerm;58450;52.150;4.466;2023-06-24T00:46:55;41.69;33.08;59.46;;
66274;Laerm;58450;52.150;4.466;2023-06-24T00:49:22;44.06;32.37;58.40;;
66274;Laerm;58450;52.150;4.466;2023-06-24T00:51:51;48.71;32.87;76.65;;
66274;Laerm;58450;52.150;4.466;2023-06-24T00:54:19;40.20;33.25;54.46;;
66274;Laerm;58450;52.150;4.466;2023-06-24T00:56:47;40.12;33.06;54.70;;
66274;Laerm;58450;52.150;4.466;2023-06-24T00:59:16;43.98;33.04;68.91;;
66274;Laerm;58450;52.150;4.466;2023-06-24T01:01:46;39.56;32.55;48.52;;
66274;Laerm;58450;52.150;4.466;2023-06-24T01:04:13;39.61;32.49;49.91;;
66274;Laerm;58450;52.150;4.466;2023-06-24T01:06:43;39.63;31.95;48.87;;
66274;Laerm;58450;52.150;4.466;2023-06-24T01:09:12;41.54;32.24;62.95;;
66274;Laerm;58450;52.150;4.466;2023-06-24T01:11:40;40.86;33.46;52.83;;
66274;Laerm;58450;52.150;4.466;2023-06-24T01:14:08;39.93;32.66;50.48;;
66274;Laerm;58450;52.150;4.466;2023-06-24T01:16:44;42.09;32.50;53.66;;
66274;Laerm;58450;52.150;4.466;2023-06-24T01:19:44;42.93;32.47;56.06;;
66274;Laerm;58450;52.150;4.466;2023-06-24T01:22:50;39.58;32.39;48.26;;
66274;Laerm;58450;52.150;4.466;2023-06-24T01:25:44;38.83;32.62;48.71;;
66274;Laerm;58450;52.150;4.466;2023-06-24T01:28:33;50.18;31.88;76.17;;
66274;Laerm;58450;52.150;4.466;2023-06-24T01:31:29;39.27;32.25;50.44;;
66274;Laerm;58450;52.150;4.466;2023-06-24T01:34:06;39.94;33.70;60.74;;
66274;Laerm;58450;52.150;4.466;2023-06-24T01:36:40;39.17;32.73;49.01;;
66274;Laerm;58450;52.150;4.466;2023-06-24T01:39:16;39.14;32.24;48.83;;
66274;Laerm;58450;52.150;4.466;2023-06-24T01:41:56;44.43;32.76;58.97;;
66274;Laerm;58450;52.150;4.466;2023-06-24T01:44:27;39.23;32.84;54.34;;
66274;Laerm;58450;52.150;4.466;2023-06-24T01:46:59;44.17;32.19;68.63;;
66274;Laerm;58450;52.150;4.466;2023-06-24T01:49:31;40.26;32.10;60.83;;
66274;Laerm;58450;52.150;4.466;2023-06-24T01:52:00;39.47;32.62;49.06;;
66274;Laerm;58450;52.150;4.466;2023-06-24T01:54:29;39.58;32.05;52.37;;
66274;Laerm;58450;52.150;4.466;2023-06-24T01:56:59;43.22;33.67;67.13;;
66274;Laerm;58450;52.150;4.466;2023-06-24T01:59:31;40.47;33.65;51.03;;
66274;Laerm;58450;52.150;4.466;2023-06-24T02:02:02;43.13;33.32;67.82;;
66274;Laerm;58450;52.150;4.466;2023-06-24T02:04:33;40.34;33.72;48.10;;
66274;Laerm;58450;52.150;4.466;2023-06-24T02:07:03;40.16;32.32;50.56;;
66274;Laerm;58450;52.150;4.466;2023-06-24T02:09:33;39.98;33.27;57.61;;
66274;Laerm;58450;52.150;4.466;2023-06-24T02:12:03;42.25;32.75;58.06;;
66274;Laerm;58450;52.150;4.466;2023-06-24T02:14:33;42.94;33.57;55.33;;
66274;Laerm;58450;52.150;4.466;2023-06-24T02:17:08;41.80;33.06;56.15;;
66274;Laerm;58450;52.150;4.466;2023-06-24T02:19:37;41.37;32.93;57.59;;
66274;Laerm;58450;52.150;4.466;2023-06-24T02:22:08;41.50;33.06;61.65;;
66274;Laerm;58450;52.150;4.466;2023-06-24T02:24:38;40.82;33.73;55.47;;
66274;Laerm;58450;52.150;4.466;2023-06-24T02:27:08;42.09;34.09;54.60;;
66274;Laerm;58450;52.150;4.466;2023-06-24T02:29:39;40.47;33.43;48.83;;
66274;Laerm;58450;52.150;4.466;2023-06-24T02:32:09;40.31;34.19;48.94;;
66274;Laerm;58450;52.150;4.466;2023-06-24T02:34:37;43.81;34.74;66.65;;
66274;Laerm;58450;52.150;4.466;2023-06-24T02:37:05;42.61;33.80;63.92;;
66274;Laerm;58450;52.150;4.466;2023-06-24T02:39:33;45.15;34.79;59.41;;
66274;Laerm;58450;52.150;4.466;2023-06-24T02:42:01;45.13;34.67;59.82;;
66274;Laerm;58450;52.150;4.466;2023-06-24T02:44:29;41.43;33.79;52.44;;
66274;Laerm;58450;52.150;4.466;2023-06-24T02:46:57;41.74;33.56;54.09;;
66274;Laerm;58450;52.150;4.466;2023-06-24T02:49:27;42.37;34.13;53.02;;
66274;Laerm;58450;52.150;4.466;2023-06-24T02:51:55;41.32;33.37;53.93;;
66274;Laerm;58450;52.150;4.466;2023-06-24T02:54:23;41.04;33.53;56.06;;
66274;Laerm;58450;52.150;4.466;2023-06-24T02:56:52;42.07;35.09;52.51;;
66274;Laerm;58450;52.150;4.466;2023-06-24T02:59:22;40.90;33.88;55.47;;
66274;Laerm;58450;52.150;4.466;2023-06-24T03:01:51;41.84;33.45;60.88;;
66274;Laerm;58450;52.150;4.466;2023-06-24T03:04:19;42.32;34.53;59.67;;
66274;Laerm;58450;52.150;4.466;2023-06-24T03:06:49;42.07;34.18;62.53;;
66274;Laerm;58450;52.150;4.466;2023-06-24T03:09:18;45.15;34.79;65.87;;
66274;Laerm;58450;52.150;4.466;2023-06-24T03:11:46;40.95;34.50;57.03;;
66274;Laerm;58450;52.150;4.466;2023-06-24T03:14:14;44.16;34.67;63.36;;
66274;Laerm;58450;52.150;4.466;2023-06-24T03:16:41;41.69;33.97;57.92;;
66274;Laerm;58450;52.150;4.466;2023-06-24T03:19:09;51.40;34.43;75.69;;
66274;Laerm;58450;52.150;4.466;2023-06-24T03:21:36;44.69;34.39;64.73;;
66274;Laerm;58450;52.150;4.466;2023-06-24T03:24:06;42.37;34.87;59.88;;
66274;Laerm;58450;52.150;4.466;2023-06-24T03:26:35;44.05;34.59;65.49;;
66274;Laerm;58450;52.150;4.466;2023-06-24T03:29:03;42.61;34.53;58.49;;
66274;Laerm;58450;52.150;4.466;2023-06-24T03:31:30;42.46;34.46;58.14;;
66274;Laerm;58450;52.150;4.466;2023-06-24T03:33:58;42.21;34.62;58.30;;
66274;Laerm;58450;52.150;4.466;2023-06-24T03:36:25;42.93;34.67;61.77;;
66274;Laerm;58450;52.150;4.466;2023-06-24T03:38:53;46.64;34.67;60.78;;
66274;Laerm;58450;52.150;4.466;2023-06-24T03:41:22;43.32;35.73;60.77;;
66274;Laerm;58450;52.150;4.466;2023-06-24T03:43:51;43.26;34.12;59.98;;
66274;Laerm;58450;52.150;4.466;2023-06-24T03:46:19;44.81;35.34;64.01;;
66274;Laerm;58450;52.150;4.466;2023-06-24T03:48:46;43.86;35.31;63.43;;
66274;Laerm;58450;52.150;4.466;2023-06-24T03:51:14;41.23;34.18;56.58;;
66274;Laerm;58450;52.150;4.466;2023-06-24T03:53:42;43.86;34.47;66.48;;
66274;Laerm;58450;52.150;4.466;2023-06-24T03:56:09;43.69;34.90;59.43;;
66274;Laerm;58450;52.150;4.466;2023-06-24T03:58:38;42.96;35.46;56.37;;
66274;Laerm;58450;52.150;4.466;2023-06-24T04:01:06;42.51;34.68;64.55;;
66274;Laerm;58450;52.150;4.466;2023-06-24T04:03:35;44.74;33.93;60.71;;
66274;Laerm;58450;52.150;4.466;2023-06-24T04:06:03;47.00;35.42;62.57;;
66274;Laerm;58450;52.150;4.466;2023-06-24T04:08:30;44.28;36.09;61.49;;
66274;Laerm;58450;52.150;4.466;2023-06-24T04:10:58;44.18;35.41;60.47;;
66274;Laerm;58450;52.150;4.466;2023-06-24T04:13:26;49.27;36.68;67.70;;
66274;Laerm;58450;52.150;4.466;2023-06-24T04:15:55;45.93;35.72;63.11;;
66274;Laerm;58450;52.150;4.466;2023-06-24T04:18:23;49.48;35.90;67.35;;
66274;Laerm;58450;52.150;4.466;2023-06-24T04:20:50;43.57;35.77;64.18;;
66274;Laerm;58450;52.150;4.466;2023-06-24T04:23:18;42.67;35.56;63.54;;
66274;Laerm;58450;52.150;4.466;2023-06-24T04:25:46;45.09;35.90;63.16;;
66274;Laerm;58450;52.150;4.466;2023-06-24T04:28:13;42.82;35.75;56.97;;
66274;Laerm;58450;52.150;4.466;2023-06-24T04:30:41;46.11;35.95;63.63;;
66274;Laerm;58450;52.150;4.466;2023-06-24T04:33:10;43.52;36.43;61.40;;
66274;Laerm;58450;52.150;4.466;2023-06-24T04:35:38;47.50;37.07;59.19;;
66274;Laerm;58450;52.150;4.466;2023-06-24T04:38:05;43.69;36.44;55.40;;
66274;Laerm;58450;52.150;4.466;2023-06-24T04:40:33;44.10;36.19;59.09;;
66274;Laerm;58450;52.150;4.466;2023-06-24T04:43:00;49.91;37.81;63.96;;
66274;Laerm;58450;52.150;4.466;2023-06-24T04:45:28;48.32;38.05;64.18;;
66274;Laerm;58450;52.150;4.466;2023-06-24T04:47:56;43.16;36.81;56.74;;
66274;Laerm;58450;52.150;4.466;2023-06-24T04:50:25;42.81;36.83;52.85;;
66274;Laerm;58450;52.150;4.466;2023-06-24T04:52:53;43.44;36.76;58.71;;
66274;Laerm;58450;52.150;4.466;2023-06-24T04:55:24;46.02;37.08;58.97;;
66274;Laerm;58450;52.150;4.466;2023-06-24T04:57:51;41.93;36.12;54.91;;
66274;Laerm;58450;52.150;4.466;2023-06-24T05:00:19;45.14;37.26;66.38;;
66274;Laerm;58450;52.150;4.466;2023-06-24T05:02:49;48.00;35.47;73.28;;
66274;Laerm;58450;52.150;4.466;2023-06-24T05:05:16;45.19;37.56;62.86;;
66274;Laerm;58450;52.150;4.466;2023-06-24T05:07:46;43.07;36.70;58.03;;
66274;Laerm;58450;52.150;4.466;2023-06-24T05:10:14;42.75;34.92;59.67;;
66274;Laerm;58450;52.150;4.466;2023-06-24T05:12:42;49.14;37.67;68.14;;
66274;Laerm;58450;52.150;4.466;2023-06-24T05:15:10;46.58;36.57;61.24;;
66274;Laerm;58450;52.150;4.466;2023-06-24T05:17:39;46.93;37.11;60.76;;
66274;Laerm;58450;52.150;4.466;2023-06-24T05:20:08;46.95;37.58;64.83;;
66274;Laerm;58450;52.150;4.466;2023-06-24T05:22:36;44.75;35.76;63.81;;
66274;Laerm;58450;52.150;4.466;2023-06-24T05:25:06;54.37;36.20;81.35;;
66274;Laerm;58450;52.150;4.466;2023-06-24T05:27:34;46.33;36.79;69.00;;
66274;Laerm;58450;52.150;4.466;2023-06-24T05:30:01;49.58;38.15;60.76;;
66274;Laerm;58450;52.150;4.466;2023-06-24T05:32:29;48.00;39.83;59.18;;
66274;Laerm;58450;52.150;4.466;2023-06-24T05:34:56;42.84;37.01;52.10;;
66274;Laerm;58450;52.150;4.466;2023-06-24T05:37:24;42.48;36.05;55.31;;
66274;Laerm;58450;52.150;4.466;2023-06-24T05:39:51;45.60;35.83;68.11;;
66274;Laerm;58450;52.150;4.466;2023-06-24T05:42:20;45.27;36.61;59.60;;
66274;Laerm;58450;52.150;4.466;2023-06-24T05:44:49;42.34;34.87;60.96;;
66274;Laerm;58450;52.150;4.466;2023-06-24T05:47:16;46.98;36.25;59.20;;
66274;Laerm;58450;52.150;4.466;2023-06-24T05:49:44;46.57;35.31;61.62;;
66274;Laerm;58450;52.150;4.466;2023-06-24T05:52:12;48.99;38.77;64.54;;
66274;Laerm;58450;52.150;4.466;2023-06-24T05:54:39;46.91;37.06;70.27;;
66274;Laerm;58450;52.150;4.466;2023-06-24T05:57:07;48.23;36.40;64.53;;
66274;Laerm;58450;52.150;4.466;2023-06-24T05:59:37;44.99;35.43;58.53;;
66274;Laerm;58450;52.150;4.466;2023-06-24T06:02:05;46.16;35.91;60.91;;
66274;Laerm;58450;52.150;4.466;2023-06-24T06:04:33;49.61;40.34;63.01;;
66274;Laerm;58450;52.150;4.466;2023-06-24T06:07:00;47.84;37.08;61.69;;
66274;Laerm;58450;52.150;4.466;2023-06-24T06:09:28;48.72;37.54;71.70;;
66274;Laerm;58450;52.150;4.466;2023-06-24T06:11:56;49.76;39.64;63.01;;
66274;Laerm;58450;52.150;4.466;2023-06-24T06:14:23;50.23;38.15;65.74;;
66274;Laerm;58450;52.150;4.466;2023-06-24T06:16:52;44.15;35.90;60.82;;
66274;Laerm;58450;52.150;4.466;2023-06-24T06:19:20;49.13;35.88;61.63;;
66274;Laerm;58450;52.150;4.466;2023-06-24T06:21:49;47.06;35.74;68.05;;
66274;Laerm;58450;52.150;4.466;2023-06-24T06:24:16;47.63;38.06;59.54;;
66274;Laerm;58450;52.150;4.466;2023-06-24T06:26:44;47.48;38.53;63.15;;
66274;Laerm;58450;52.150;4.466;2023-06-24T06:29:12;48.52;37.88;62.62;;
66274;Laerm;58450;52.150;4.466;2023-06-24T06:31:39;46.73;38.34;59.45;;
66274;Laerm;58450;52.150;4.466;2023-06-24T06:34:08;47.22;36.91;59.73;;
66274;Laerm;58450;52.150;4.466;2023-06-24T06:36:36;46.19;35.62;65.93;;
66274;Laerm;58450;52.150;4.466;2023-06-24T06:39:03;53.20;46.03;61.37;;
66274;Laerm;58450;52.150;4.466;2023-06-24T06:41:31;49.47;41.93;65.42;;
66274;Laerm;58450;52.150;4.466;2023-06-24T06:43:59;50.20;39.33;63.04;;
66274;Laerm;58450;52.150;4.466;2023-06-24T06:46:27;46.46;37.86;61.60;;
66274;Laerm;58450;52.150;4.466;2023-06-24T06:48:55;48.45;38.03;63.59;;
66274;Laerm;58450;52.150;4.466;2023-06-24T06:51:24;46.02;38.79;58.43;;
66274;Laerm;58450;52.150;4.466;2023-06-24T06:53:52;53.10;39.28;72.77;;
66274;Laerm;58450;52.150;4.466;2023-06-24T06:56:23;46.87;37.81;57.05;;
66274;Laerm;58450;52.150;4.466;2023-06-24T06:58:51;45.25;35.32;69.78;;
66274;Laerm;58450;52.150;4.466;2023-06-24T07:01:19;51.36;37.53;68.00;;
66274;Laerm;58450;52.150;4.466;2023-06-24T07:03:48;46.03;37.22;63.65;;
66274;Laerm;58450;52.150;4.466;2023-06-24T07:06:17;46.54;36.93;58.32;;
66274;Laerm;58450;52.150;4.466;2023-06-24T07:08:46;48.04;38.52;61.63;;
66274;Laerm;58450;52.150;4.466;2023-06-24T07:11:14;48.83;41.62;58.43;;
66274;Laerm;58450;52.150;4.466;2023-06-24T07:13:42;50.96;40.92;64.82;;
66274;Laerm;58450;52.150;4.466;2023-06-24T07:16:11;46.39;38.40;64.76;;
66274;Laerm;58450;52.150;4.466;2023-06-24T07:18:38;49.67;39.59;62.66;;
66274;Laerm;58450;52.150;4.466;2023-06-24T07:21:06;43.64;37.83;57.72;;
66274;Laerm;58450;52.150;4.466;2023-06-24T07:23:33;51.73;40.72;79.90;;
66274;Laerm;58450;52.150;4.466;2023-06-24T07:26:02;47.83;39.27;58.68;;
66274;Laerm;58450;52.150;4.466;2023-06-24T07:28:30;44.85;38.37;60.24;;
66274;Laerm;58450;52.150;4.466;2023-06-24T07:30:58;50.43;38.76;72.27;;
66274;Laerm;58450;52.150;4.466;2023-06-24T07:33:25;46.32;37.65;59.55;;
66274;Laerm;58450;52.150;4.466;2023-06-24T07:35:53;44.77;36.77;64.31;;
66274;Laerm;58450;52.150;4.466;2023-06-24T07:38:21;44.44;35.42;61.10;;
66274;Laerm;58450;52.150;4.466;2023-06-24T07:40:48;45.40;38.52;60.31;;
66274;Laerm;58450;52.150;4.466;2023-06-24T07:43:17;47.57;37.48;62.43;;
66274;Laerm;58450;52.150;4.466;2023-06-24T07:45:45;46.42;37.88;59.13;;
66274;Laerm;58450;52.150;4.466;2023-06-24T07:48:12;48.93;36.94;70.35;;
66274;Laerm;58450;52.150;4.466;2023-06-24T07:50:40;43.87;37.18;58.25;;
66274;Laerm;58450;52.150;4.466;2023-06-24T07:53:08;50.97;42.03;63.93;;
66274;Laerm;58450;52.150;4.466;2023-06-24T07:55:35;53.44;47.08;61.11;;
66274;Laerm;58450;52.150;4.466;2023-06-24T07:58:03;49.44;42.45;61.80;;
66274;Laerm;58450;52.150;4.466;2023-06-24T08:00:33;53.59;45.17;62.30;;
66274;Laerm;58450;52.150;4.466;2023-06-24T08:03:01;54.46;49.37;66.49;;
66274;Laerm;58450;52.150;4.466;2023-06-24T08:05:28;52.53;45.51;63.04;;
66274;Laerm;58450;52.150;4.466;2023-06-24T08:07:56;50.25;42.83;62.46;;
66274;Laerm;58450;52.150;4.466;2023-06-24T08:10:24;46.83;41.29;60.07;;
66274;Laerm;58450;52.150;4.466;2023-06-24T08:12:52;45.06;39.27;62.68;;
66274;Laerm;58450;52.150;4.466;2023-06-24T08:15:19;44.75;38.91;54.14;;
66274;Laerm;58450;52.150;4.466;2023-06-24T08:17:52;50.13;38.43;63.04;;
66274;Laerm;58450;52.150;4.466;2023-06-24T08:20:20;49.65;42.20;57.61;;
66274;Laerm;58450;52.150;4.466;2023-06-24T08:22:47;48.27;41.93;58.65;;
66274;Laerm;58450;52.150;4.466;2023-06-24T08:25:15;49.40;41.66;63.69;;
66274;Laerm;58450;52.150;4.466;2023-06-24T08:27:43;51.90;44.78;67.48;;
66274;Laerm;58450;52.150;4.466;2023-06-24T08:30:13;48.30;42.19;59.47;;
66274;Laerm;58450;52.150;4.466;2023-06-24T08:32:42;49.44;42.32;60.35;;
66274;Laerm;58450;52.150;4.466;2023-06-24T08:35:11;51.39;41.61;62.47;;
66274;Laerm;58450;52.150;4.466;2023-06-24T08:37:39;47.81;40.62;54.94;;
66274;Laerm;58450;52.150;4.466;2023-06-24T08:40:07;48.82;38.58;64.12;;
66274;Laerm;58450;52.150;4.466;2023-06-24T08:42:35;49.61;39.34;62.98;;
66274;Laerm;58450;52.150;4.466;2023-06-24T08:45:04;50.24;41.53;58.12;;
66274;Laerm;58450;52.150;4.466;2023-06-24T08:47:33;52.29;43.05;67.15;;
66274;Laerm;58450;52.150;4.466;2023-06-24T08:50:04;47.13;40.32;61.06;;
66274;Laerm;58450;52.150;4.466;2023-06-24T08:52:36;46.39;40.13;53.25;;
66274;Laerm;58450;52.150;4.466;2023-06-24T08:55:10;48.61;41.99;59.02;;
66274;Laerm;58450;52.150;4.466;2023-06-24T08:57:40;47.53;39.86;60.87;;
66274;Laerm;58450;52.150;4.466;2023-06-24T09:00:08;50.71;42.52;57.91;;
66274;Laerm;58450;52.150;4.466;2023-06-24T09:02:37;51.78;44.01;59.65;;
66274;Laerm;58450;52.150;4.466;2023-06-24T09:05:06;47.42;39.15;57.68;;
66274;Laerm;58450;52.150;4.466;2023-06-24T09:07:37;49.04;41.91;60.86;;
66274;Laerm;58450;52.150;4.466;2023-06-24T09:10:05;49.52;44.62;55.56;;
66274;Laerm;58450;52.150;4.466;2023-06-24T09:12:34;50.09;44.52;56.21;;
66274;Laerm;58450;52.150;4.466;2023-06-24T09:15:03;51.73;44.17;63.14;;
66274;Laerm;58450;52.150;4.466;2023-06-24T09:17:31;51.45;42.15;63.11;;
66274;Laerm;58450;52.150;4.466;2023-06-24T09:20:04;54.93;41.42;84.79;;
66274;Laerm;58450;52.150;4.466;2023-06-24T09:22:32;50.56;41.13;65.71;;
66274;Laerm;58450;52.150;4.466;2023-06-24T09:25:02;50.22;42.91;70.74;;
66274;Laerm;58450;52.150;4.466;2023-06-24T09:27:31;50.66;41.10;63.72;;
66274;Laerm;58450;52.150;4.466;2023-06-24T09:29:59;50.90;41.59;61.44;;
66274;Laerm;58450;52.150;4.466;2023-06-24T09:32:29;51.94;45.50;59.33;;
66274;Laerm;58450;52.150;4.466;2023-06-24T09:34:58;50.15;41.90;62.57;;
66274;Laerm;58450;52.150;4.466;2023-06-24T09:37:25;48.76;40.64;67.08;;
66274;Laerm;58450;52.150;4.466;2023-06-24T09:39:57;53.61;46.78;63.40;;
66274;Laerm;58450;52.150;4.466;2023-06-24T09:42:26;51.48;45.49;60.72;;
66274;Laerm;58450;52.150;4.466;2023-06-24T09:44:54;50.17;43.45;58.06;;
66274;Laerm;58450;52.150;4.466;2023-06-24T09:47:22;55.48;49.17;67.24;;
66274;Laerm;58450;52.150;4.466;2023-06-24T09:49:52;52.38;46.57;60.77;;
66274;Laerm;58450;52.150;4.466;2023-06-24T09:52:20;52.80;47.42;58.23;;
66274;Laerm;58450;52.150;4.466;2023-06-24T09:54:51;52.41;45.90;64.61;;
66274;Laerm;58450;52.150;4.466;2023-06-24T09:57:28;54.15;48.71;65.03;;
66274;Laerm;58450;52.150;4.466;2023-06-24T09:59:57;52.26;45.36;62.33;;
66274;Laerm;58450;52.150;4.466;2023-06-24T10:02:25;50.52;44.62;63.41;;
66274;Laerm;58450;52.150;4.466;2023-06-24T10:04:54;52.88;46.84;65.92;;
66274;Laerm;58450;52.150;4.466;2023-06-24T10:07:22;52.80;44.94;60.09;;
66274;Laerm;58450;52.150;4.466;2023-06-24T10:09:50;53.48;46.34;74.63;;
66274;Laerm;58450;52.150;4.466;2023-06-24T10:12:18;52.63;43.69;72.77;;
66274;Laerm;58450;52.150;4.466;2023-06-24T10:14:47;52.25;41.47;69.69;;
66274;Laerm;58450;52.150;4.466;2023-06-24T10:17:15;51.88;42.07;62.76;;
66274;Laerm;58450;52.150;4.466;2023-06-24T10:19:44;52.07;45.11;62.60;;
66274;Laerm;58450;52.150;4.466;2023-06-24T10:22:12;52.01;45.35;58.70;;
66274;Laerm;58450;52.150;4.466;2023-06-24T10:24:41;53.27;46.33;72.07;;
66274;Laerm;58450;52.150;4.466;2023-06-24T10:27:15;54.33;48.34;62.87;;
66274;Laerm;58450;52.150;4.466;2023-06-24T10:29:47;52.78;46.39;61.60;;
66274;Laerm;58450;52.150;4.466;2023-06-24T10:32:16;53.56;46.20;61.45;;
66274;Laerm;58450;52.150;4.466;2023-06-24T10:34:45;51.74;44.65;70.10;;
66274;Laerm;58450;52.150;4.466;2023-06-24T10:37:19;51.42;43.29;71.49;;
66274;Laerm;58450;52.150;4.466;2023-06-24T10:39:51;52.57;45.10;70.64;;
66274;Laerm;58450;52.150;4.466;2023-06-24T10:42:33;53.61;46.31;66.16;;
66274;Laerm;58450;52.150;4.466;2023-06-24T10:45:17;54.87;48.39;69.14;;
66274;Laerm;58450;52.150;4.466;2023-06-24T10:47:47;51.19;44.50;60.05;;
66274;Laerm;58450;52.150;4.466;2023-06-24T10:50:18;50.15;45.44;59.88;;
66274;Laerm;58450;52.150;4.466;2023-06-24T10:52:48;52.86;47.16;64.70;;
66274;Laerm;58450;52.150;4.466;2023-06-24T10:55:18;52.99;47.69;61.76;;
66274;Laerm;58450;52.150;4.466;2023-06-24T10:57:46;56.36;48.90;74.20;;
66274;Laerm;58450;52.150;4.466;2023-06-24T11:00:16;53.14;47.73;58.46;;
66274;Laerm;58450;52.150;4.466;2023-06-24T11:02:44;54.44;48.25;63.33;;
66274;Laerm;58450;52.150;4.466;2023-06-24T11:05:12;53.66;46.94;68.62;;
66274;Laerm;58450;52.150;4.466;2023-06-24T11:07:40;52.66;47.04;62.70;;
66274;Laerm;58450;52.150;4.466;2023-06-24T11:10:10;53.60;46.84;59.54;;
66274;Laerm;58450;52.150;4.466;2023-06-24T11:12:40;54.14;48.48;63.12;;
66274;Laerm;58450;52.150;4.466;2023-06-24T11:15:10;54.76;48.16;66.47;;
66274;Laerm;58450;52.150;4.466;2023-06-24T11:17:40;52.97;45.97;65.32;;
66274;Laerm;58450;52.150;4.466;2023-06-24T11:20:10;58.91;47.59;72.16;;
66274;Laerm;58450;52.150;4.466;2023-06-24T11:22:39;55.44;47.49;68.50;;
66274;Laerm;58450;52.150;4.466;2023-06-24T11:25:15;63.12;46.00;80.81;;
66274;Laerm;58450;52.150;4.466;2023-06-24T11:27:43;53.73;43.73;64.89;;
66274;Laerm;58450;52.150;4.466;2023-06-24T11:30:12;55.42;44.42;65.88;;
66274;Laerm;58450;52.150;4.466;2023-06-24T11:32:43;55.85;51.02;62.63;;
66274;Laerm;58450;52.150;4.466;2023-06-24T11:35:13;54.56;48.04;64.86;;
66274;Laerm;58450;52.150;4.466;2023-06-24T11:37:42;54.64;50.57;62.65;;
66274;Laerm;58450;52.150;4.466;2023-06-24T11:40:12;56.52;50.28;64.03;;
66274;Laerm;58450;52.150;4.466;2023-06-24T11:42:42;55.92;48.11;71.05;;
66274;Laerm;58450;52.150;4.466;2023-06-24T11:45:12;59.34;48.18;73.37;;
66274;Laerm;58450;52.150;4.466;2023-06-24T11:47:43;59.56;51.55;73.43;;
66274;Laerm;58450;52.150;4.466;2023-06-24T11:50:10;65.97;50.03;80.90;;
66274;Laerm;58450;52.150;4.466;2023-06-24T11:52:40;49.00;42.47;56.76;;
66274;Laerm;58450;52.150;4.466;2023-06-24T11:55:16;53.57;42.99;66.01;;
66274;Laerm;58450;52.150;4.466;2023-06-24T11:57:51;54.94;46.98;66.12;;
66274;Laerm;58450;52.150;4.466;2023-06-24T12:00:23;49.89;44.73;61.89;;
66274;Laerm;58450;52.150;4.466;2023-06-24T12:02:55;53.55;46.48;62.77;;
66274;Laerm;58450;52.150;4.466;2023-06-24T12:05:26;52.95;47.61;60.08;;
66274;Laerm;58450;52.150;4.466;2023-06-24T12:07:59;53.07;47.19;61.14;;
66274;Laerm;58450;52.150;4.466;2023-06-24T12:10:28;56.95;51.68;63.93;;
66274;Laerm;58450;52.150;4.466;2023-06-24T12:12:57;54.33;48.27;62.85;;
66274;Laerm;58450;52.150;4.466;2023-06-24T12:15:25;56.63;48.82;65.50;;
66274;Laerm;58450;52.150;4.466;2023-06-24T12:17:54;55.24;48.68;65.12;;
66274;Laerm;58450;52.150;4.466;2023-06-24T12:20:24;53.53;46.75;68.60;;
66274;Laerm;58450;52.150;4.466;2023-06-24T12:22:52;54.28;48.25;60.23;;
66274;Laerm;58450;52.150;4.466;2023-06-24T12:25:19;53.21;47.25;62.79;;
66274;Laerm;58450;52.150;4.466;2023-06-24T12:27:47;51.45;42.97;68.43;;
66274;Laerm;58450;52.150;4.466;2023-06-24T12:30:15;48.63;42.13;63.28;;
66274;Laerm;58450;52.150;4.466;2023-06-24T12:32:44;51.57;43.41;61.99;;
66274;Laerm;58450;52.150;4.466;2023-06-24T12:35:13;53.02;46.08;61.09;;
66274;Laerm;58450;52.150;4.466;2023-06-24T12:37:40;51.23;45.75;57.68;;
66274;Laerm;58450;52.150;4.466;2023-06-24T12:40:08;53.51;48.39;66.80;;
66274;Laerm;58450;52.150;4.466;2023-06-24T12:42:36;53.85;48.03;66.40;;
66274;Laerm;58450;52.150;4.466;2023-06-24T12:45:05;56.27;50.07;65.68;;
66274;Laerm;58450;52.150;4.466;2023-06-24T12:47:33;55.91;48.71;66.71;;
66274;Laerm;58450;52.150;4.466;2023-06-24T12:50:00;55.22;48.14;64.48;;
66274;Laerm;58450;52.150;4.466;2023-06-24T12:52:34;54.64;49.77;66.01;;
66274;Laerm;58450;52.150;4.466;2023-06-24T12:55:01;55.08;48.29;66.43;;
66274;Laerm;58450;52.150;4.466;2023-06-24T12:57:30;53.40;46.61;73.27;;
66274;Laerm;58450;52.150;4.466;2023-06-24T12:59:57;55.26;49.06;72.71;;
66274;Laerm;58450;52.150;4.466;2023-06-24T13:02:25;55.14;49.23;65.99;;
66274;Laerm;58450;52.150;4.466;2023-06-24T13:04:52;57.13;51.18;73.43;;
66274;Laerm;58450;52.150;4.466;2023-06-24T13:07:20;55.18;49.63;63.70;;
66274;Laerm;58450;52.150;4.466;2023-06-24T13:09:49;54.08;48.59;61.77;;
66274;Laerm;58450;52.150;4.466;2023-06-24T13:12:17;54.11;47.87;67.96;;
66274;Laerm;58450;52.150;4.466;2023-06-24T13:14:44;55.62;47.86;67.52;;
66274;Laerm;58450;52.150;4.466;2023-06-24T13:17:12;54.67;49.60;65.02;;
66274;Laerm;58450;52.150;4.466;2023-06-24T13:19:39;55.09;48.18;63.19;;
66274;Laerm;58450;52.150;4.466;2023-06-24T13:22:07;50.91;46.17;59.23;;
66274;Laerm;58450;52.150;4.466;2023-06-24T13:24:34;53.15;46.07;68.53;;
66274;Laerm;58450;52.150;4.466;2023-06-24T13:27:04;55.60;49.83;65.05;;
66274;Laerm;58450;52.150;4.466;2023-06-24T13:29:31;56.55;48.79;76.90;;
66274;Laerm;58450;52.150;4.466;2023-06-24T13:31:59;54.99;49.81;62.52;;
66274;Laerm;58450;52.150;4.466;2023-06-24T13:34:27;57.93;50.97;68.54;;
66274;Laerm;58450;52.150;4.466;2023-06-24T13:36:54;56.37;51.44;64.43;;
66274;Laerm;58450;52.150;4.466;2023-06-24T13:39:22;53.02;47.31;60.98;;
66274;Laerm;58450;52.150;4.466;2023-06-24T13:41:50;52.65;47.43;63.48;;
66274;Laerm;58450;52.150;4.466;2023-06-24T13:44:20;53.92;46.16;70.87;;
66274;Laerm;58450;52.150;4.466;2023-06-24T13:46:48;54.48;46.89;68.33;;
66274;Laerm;58450;52.150;4.466;2023-06-24T13:49:16;53.23;45.88;62.52;;
66274;Laerm;58450;52.150;4.466;2023-06-24T13:51:44;53.84;48.60;58.13;;
66274;Laerm;58450;52.150;4.466;2023-06-24T13:54:12;56.83;50.10;68.15;;
66274;Laerm;58450;52.150;4.466;2023-06-24T13:56:39;57.73;51.59;68.59;;